sensor_id;sensor_type;location;lat;lon;timestamp;temperature;humidity
33207;DHT22;19565;46.602;11.534;2024-01-30T00:00:09;2.20;99.90
33207;DHT22;19565;46.602;11.534;2024-01-30T00:02:37;2.10;99.90
33207;DHT22;19565;46.602;11.534;2024-01-30T00:05:06;2.10;99.90
33207;DHT22;19565;46.602;11.534;2024-01-30T00:07:34;2.00;99.90
33207;DHT22;19565;46.602;11.534;2024-01-30T00:10:03;2.00;99.90
33207;DHT22;19565;46.602;11.534;2024-01-30T00:12:33;2.00;99.90
33207;DHT22;19565;46.602;11.534;2024-01-30T00:15:01;2.00;99.90
33207;DHT22;19565;46.602;11.534;2024-01-30T00:17:32;2.00;99.90
33207;DHT22;19565;46.602;11.534;2024-01-30T00:20:01;2.10;99.90
33207;DHT22;19565;46.602;11.534;2024-01-30T00:22:32;2.00;99.90
33207;DHT22;19565;46.602;11.534;2024-01-30T00:25:00;2.00;99.90
33207;DHT22;19565;46.602;11.534;2024-01-30T00:27:29;2.10;99.90
33207;DHT22;19565;46.602;11.534;2024-01-30T00:29:57;2.00;99.90
33207;DHT22;19565;46.602;11.534;2024-01-30T00:32:25;2.10;99.90
33207;DHT22;19565;46.602;11.534;2024-01-30T00:34:55;2.10;99.90
33207;DHT22;19565;46.602;11.534;2024-01-30T00:37:24;2.10;99.90
33207;DHT22;19565;46.602;11.534;2024-01-30T00:39:52;2.00;99.90
33207;DHT22;19565;46.602;11.534;2024-01-30T00:42:20;2.00;99.90
33207;DHT22;19565;46.602;11.534;2024-01-30T00:44:52;2.00;99.90
33207;DHT22;19565;46.602;11.534;2024-01-30T00:47:20;2.10;99.90
33207;DHT22;19565;46.602;11.534;2024-01-30T00:49:49;2.00;99.90
33207;DHT22;19565;46.602;11.534;2024-01-30T00:52:21;2.00;99.90
33207;DHT22;19565;46.602;11.534;2024-01-30T00:54:49;2.00;99.90
33207;DHT22;19565;46.602;11.534;2024-01-30T00:57:18;2.00;99.90
33207;DHT22;19565;46.602;11.534;2024-01-30T00:59:46;2.00;99.90
33207;DHT22;19565;46.602;11.534;2024-01-30T01:02:14;2.00;99.90
33207;DHT22;19565;46.602;11.534;2024-01-30T01:04:44;2.00;99.90
33207;DHT22;19565;46.602;11.534;2024-01-30T01:07:12;2.00;99.90
33207;DHT22;19565;46.602;11.534;2024-01-30T01:09:42;2.00;99.90
33207;DHT22;19565;46.602;11.534;2024-01-30T01:12:10;2.00;99.90
33207;DHT22;19565;46.602;11.534;2024-01-30T01:14:39;2.00;99.90
33207;DHT22;19565;46.602;11.534;2024-01-30T01:17:07;2.00;99.90
33207;DHT22;19565;46.602;11.534;2024-01-30T01:19:34;2.00;99.90
33207;DHT22;19565;46.602;11.534;2024-01-30T01:22:03;2.00;99.90
33207;DHT22;19565;46.602;11.534;2024-01-30T01:24:31;2.10;99.90
33207;DHT22;19565;46.602;11.534;2024-01-30T01:27:01;2.20;99.90
33207;DHT22;19565;46.602;11.534;2024-01-30T01:29:29;2.20;99.90
33207;DHT22;19565;46.602;11.534;2024-01-30T01:31:57;2.20;99.90
33207;DHT22;19565;46.602;11.534;2024-01-30T01:34:26;2.20;99.90
33207;DHT22;19565;46.602;11.534;2024-01-30T01:36:56;2.00;99.90
33207;DHT22;19565;46.602;11.534;2024-01-30T01:39:25;2.00;99.90
33207;DHT22;19565;46.602;11.534;2024-01-30T01:41:53;2.00;99.90
33207;DHT22;19565;46.602;11.534;2024-01-30T01:44:23;2.10;99.90
33207;DHT22;19565;46.602;11.534;2024-01-30T01:46:51;2.10;99.90
33207;DHT22;19565;46.602;11.534;2024-01-30T01:49:22;2.10;99.90
33207;DHT22;19565;46.602;11.534;2024-01-30T01:51:52;2.00;99.90
33207;DHT22;19565;46.602;11.534;2024-01-30T01:54:22;2.00;99.90
33207;DHT22;19565;46.602;11.534;2024-01-30T01:56:51;2.00;99.90
33207;DHT22;19565;46.602;11.534;2024-01-30T01:59:20;1.90;99.90
33207;DHT22;19565;46.602;11.534;2024-01-30T02:01:51;1.90;99.90
33207;DHT22;19565;46.602;11.534;2024-01-30T02:04:21;1.90;99.90
33207;DHT22;19565;46.602;11.534;2024-01-30T02:06:50;2.00;99.90
33207;DHT22;19565;46.602;11.534;2024-01-30T02:09:18;2.00;99.90
33207;DHT22;19565;46.602;11.534;2024-01-30T02:11:46;1.90;99.90
33207;DHT22;19565;46.602;11.534;2024-01-30T02:14:14;1.90;99.90
33207;DHT22;19565;46.602;11.534;2024-01-30T02:16:43;1.80;99.90
33207;DHT22;19565;46.602;11.534;2024-01-30T02:19:12;1.80;99.90
33207;DHT22;19565;46.602;11.534;2024-01-30T02:21:42;1.80;99.90
33207;DHT22;19565;46.602;11.534;2024-01-30T02:24:11;1.80;99.90
33207;DHT22;19565;46.602;11.534;2024-01-30T02:26:39;1.80;99.90
33207;DHT22;19565;46.602;11.534;2024-01-30T02:29:07;1.70;99.90
33207;DHT22;19565;46.602;11.534;2024-01-30T02:31:35;1.70;99.90
33207;DHT22;19565;46.602;11.534;2024-01-30T02:34:04;1.70;99.90
33207;DHT22;19565;46.602;11.534;2024-01-30T02:36:33;1.80;99.90
33207;DHT22;19565;46.602;11.534;2024-01-30T02:39:03;1.80;99.90
33207;DHT22;19565;46.602;11.534;2024-01-30T02:41:32;1.90;99.90
33207;DHT22;19565;46.602;11.534;2024-01-30T02:44:00;1.80;99.90
33207;DHT22;19565;46.602;11.534;2024-01-30T02:46:28;1.90;99.90
33207;DHT22;19565;46.602;11.534;2024-01-30T02:48:57;2.00;99.90
33207;DHT22;19565;46.602;11.534;2024-01-30T02:51:25;1.90;99.90
33207;DHT22;19565;46.602;11.534;2024-01-30T02:53:53;1.90;99.90
33207;DHT22;19565;46.602;11.534;2024-01-30T02:56:23;1.90;99.90
33207;DHT22;19565;46.602;11.534;2024-01-30T02:58:51;2.00;99.90
33207;DHT22;19565;46.602;11.534;2024-01-30T03:01:19;2.00;99.90
33207;DHT22;19565;46.602;11.534;2024-01-30T03:03:48;2.00;99.90
33207;DHT22;19565;46.602;11.534;2024-01-30T03:06:15;2.00;99.90
33207;DHT22;19565;46.602;11.534;2024-01-30T03:08:44;2.00;99.90
33207;DHT22;19565;46.602;11.534;2024-01-30T03:11:12;1.90;99.90
33207;DHT22;19565;46.602;11.534;2024-01-30T03:13:42;1.90;99.90
33207;DHT22;19565;46.602;11.534;2024-01-30T03:16:10;1.90;99.90
33207;DHT22;19565;46.602;11.534;2024-01-30T03:18:38;1.80;99.90
33207;DHT22;19565;46.602;11.534;2024-01-30T03:21:07;1.90;99.90
33207;DHT22;19565;46.602;11.534;2024-01-30T03:23:35;1.80;99.90
33207;DHT22;19565;46.602;11.534;2024-01-30T03:26:04;1.80;99.90
33207;DHT22;19565;46.602;11.534;2024-01-30T03:28:33;1.80;99.90
33207;DHT22;19565;46.602;11.534;2024-01-30T03:31:03;1.80;99.90
33207;DHT22;19565;46.602;11.534;2024-01-30T03:33:31;1.80;99.90
33207;DHT22;19565;46.602;11.534;2024-01-30T03:36:03;1.70;99.90
33207;DHT22;19565;46.602;11.534;2024-01-30T03:38:31;1.70;99.90
33207;DHT22;19565;46.602;11.534;2024-01-30T03:41:03;1.60;99.90
33207;DHT22;19565;46.602;11.534;2024-01-30T03:43:31;1.60;99.90
33207;DHT22;19565;46.602;11.534;2024-01-30T03:46:00;1.60;99.90
33207;DHT22;19565;46.602;11.534;2024-01-30T03:48:30;1.50;99.90
33207;DHT22;19565;46.602;11.534;2024-01-30T03:50:59;1.60;99.90
33207;DHT22;19565;46.602;11.534;2024-01-30T03:53:27;1.60;99.90
33207;DHT22;19565;46.602;11.534;2024-01-30T03:55:55;1.50;99.90
33207;DHT22;19565;46.602;11.534;2024-01-30T03:58:24;1.50;99.90
33207;DHT22;19565;46.602;11.534;2024-01-30T04:00:52;1.50;99.90
33207;DHT22;19565;46.602;11.534;2024-01-30T04:03:20;1.50;99.90
33207;DHT22;19565;46.602;11.534;2024-01-30T04:05:51;1.40;99.90
33207;DHT22;19565;46.602;11.534;2024-01-30T04:08:19;1.50;99.90
33207;DHT22;19565;46.602;11.534;2024-01-30T04:10:48;1.50;99.90
33207;DHT22;19565;46.602;11.534;2024-01-30T04:13:17;1.50;99.90
33207;DHT22;19565;46.602;11.534;2024-01-30T04:15:45;1.50;99.90
33207;DHT22;19565;46.602;11.534;2024-01-30T04:18:13;1.50;99.90
33207;DHT22;19565;46.602;11.534;2024-01-30T04:20:42;1.50;99.90
33207;DHT22;19565;46.602;11.534;2024-01-30T04:23:11;1.50;99.90
33207;DHT22;19565;46.602;11.534;2024-01-30T04:25:39;1.50;99.90
33207;DHT22;19565;46.602;11.534;2024-01-30T04:28:08;1.50;99.90
33207;DHT22;19565;46.602;11.534;2024-01-30T04:30:36;1.40;99.90
33207;DHT22;19565;46.602;11.534;2024-01-30T04:33:05;1.50;99.90
33207;DHT22;19565;46.602;11.534;2024-01-30T04:35:33;1.40;99.90
33207;DHT22;19565;46.602;11.534;2024-01-30T04:38:02;1.50;99.90
33207;DHT22;19565;46.602;11.534;2024-01-30T04:40:31;1.40;99.90
33207;DHT22;19565;46.602;11.534;2024-01-30T04:42:59;1.50;99.90
33207;DHT22;19565;46.602;11.534;2024-01-30T04:45:28;1.50;99.90
33207;DHT22;19565;46.602;11.534;2024-01-30T04:47:56;1.50;99.90
33207;DHT22;19565;46.602;11.534;2024-01-30T04:50:24;1.50;99.90
33207;DHT22;19565;46.602;11.534;2024-01-30T04:52:53;1.60;99.90
33207;DHT22;19565;46.602;11.534;2024-01-30T04:55:24;1.50;99.90
33207;DHT22;19565;46.602;11.534;2024-01-30T04:57:54;1.50;99.90
33207;DHT22;19565;46.602;11.534;2024-01-30T05:00:22;1.50;99.90
33207;DHT22;19565;46.602;11.534;2024-01-30T05:02:50;1.40;99.90
33207;DHT22;19565;46.602;11.534;2024-01-30T05:05:18;1.40;99.90
33207;DHT22;19565;46.602;11.534;2024-01-30T05:07:48;1.40;99.90
33207;DHT22;19565;46.602;11.534;2024-01-30T05:10:17;1.40;99.90
33207;DHT22;19565;46.602;11.534;2024-01-30T05:12:48;1.50;99.90
33207;DHT22;19565;46.602;11.534;2024-01-30T05:15:18;1.50;99.90
33207;DHT22;19565;46.602;11.534;2024-01-30T05:17:47;1.50;99.90
33207;DHT22;19565;46.602;11.534;2024-01-30T05:20:16;1.40;99.90
33207;DHT22;19565;46.602;11.534;2024-01-30T05:22:45;1.40;99.90
33207;DHT22;19565;46.602;11.534;2024-01-30T05:25:13;1.50;99.90
33207;DHT22;19565;46.602;11.534;2024-01-30T05:27:42;1.50;99.90
33207;DHT22;19565;46.602;11.534;2024-01-30T05:30:11;1.50;99.90
33207;DHT22;19565;46.602;11.534;2024-01-30T05:32:41;1.50;99.90
33207;DHT22;19565;46.602;11.534;2024-01-30T05:35:09;1.50;99.90
33207;DHT22;19565;46.602;11.534;2024-01-30T05:37:37;1.50;99.90
33207;DHT22;19565;46.602;11.534;2024-01-30T05:40:09;1.40;99.90
33207;DHT22;19565;46.602;11.534;2024-01-30T05:42:38;1.40;99.90
33207;DHT22;19565;46.602;11.534;2024-01-30T05:45:07;1.40;99.90
33207;DHT22;19565;46.602;11.534;2024-01-30T05:47:35;1.40;99.90
33207;DHT22;19565;46.602;11.534;2024-01-30T05:50:06;1.40;99.90
33207;DHT22;19565;46.602;11.534;2024-01-30T05:52:35;1.40;99.90
33207;DHT22;19565;46.602;11.534;2024-01-30T05:55:04;1.40;99.90
33207;DHT22;19565;46.602;11.534;2024-01-30T05:57:32;1.50;99.90
33207;DHT22;19565;46.602;11.534;2024-01-30T06:00:01;1.50;99.90
33207;DHT22;19565;46.602;11.534;2024-01-30T06:02:30;1.50;99.90
33207;DHT22;19565;46.602;11.534;2024-01-30T06:04:58;1.50;99.90
33207;DHT22;19565;46.602;11.534;2024-01-30T06:07:28;1.40;99.90
33207;DHT22;19565;46.602;11.534;2024-01-30T06:10:02;1.50;99.90
33207;DHT22;19565;46.602;11.534;2024-01-30T06:12:31;1.50;99.90
33207;DHT22;19565;46.602;11.534;2024-01-30T06:14:59;1.50;99.90
33207;DHT22;19565;46.602;11.534;2024-01-30T06:17:27;1.50;99.90
33207;DHT22;19565;46.602;11.534;2024-01-30T06:19:56;1.50;99.90
33207;DHT22;19565;46.602;11.534;2024-01-30T06:22:24;1.50;99.90
33207;DHT22;19565;46.602;11.534;2024-01-30T06:24:54;1.50;99.90
33207;DHT22;19565;46.602;11.534;2024-01-30T06:27:23;1.50;99.90
33207;DHT22;19565;46.602;11.534;2024-01-30T06:29:51;1.40;99.90
33207;DHT22;19565;46.602;11.534;2024-01-30T06:32:20;1.20;99.90
33207;DHT22;19565;46.602;11.534;2024-01-30T06:34:48;1.00;99.90
33207;DHT22;19565;46.602;11.534;2024-01-30T06:37:16;1.10;99.90
33207;DHT22;19565;46.602;11.534;2024-01-30T06:39:45;1.20;99.90
33207;DHT22;19565;46.602;11.534;2024-01-30T06:42:14;1.20;99.90
33207;DHT22;19565;46.602;11.534;2024-01-30T06:44:42;1.30;99.90
33207;DHT22;19565;46.602;11.534;2024-01-30T06:47:11;1.40;99.90
33207;DHT22;19565;46.602;11.534;2024-01-30T06:49:39;1.40;99.90
33207;DHT22;19565;46.602;11.534;2024-01-30T06:52:09;1.40;99.90
33207;DHT22;19565;46.602;11.534;2024-01-30T06:54:37;1.40;99.90
33207;DHT22;19565;46.602;11.534;2024-01-30T06:57:09;1.40;99.90
33207;DHT22;19565;46.602;11.534;2024-01-30T06:59:40;1.50;99.90
33207;DHT22;19565;46.602;11.534;2024-01-30T07:02:12;1.50;99.90
33207;DHT22;19565;46.602;11.534;2024-01-30T07:04:40;1.50;99.90
33207;DHT22;19565;46.602;11.534;2024-01-30T07:07:13;1.50;99.90
33207;DHT22;19565;46.602;11.534;2024-01-30T07:09:42;1.50;99.90
33207;DHT22;19565;46.602;11.534;2024-01-30T07:12:11;1.50;99.90
33207;DHT22;19565;46.602;11.534;2024-01-30T07:14:40;1.50;99.90
33207;DHT22;19565;46.602;11.534;2024-01-30T07:17:09;1.60;99.90
33207;DHT22;19565;46.602;11.534;2024-01-30T07:19:37;1.60;99.90
33207;DHT22;19565;46.602;11.534;2024-01-30T07:22:06;1.60;99.90
33207;DHT22;19565;46.602;11.534;2024-01-30T07:24:34;1.60;99.90
33207;DHT22;19565;46.602;11.534;2024-01-30T07:27:03;1.70;99.90
33207;DHT22;19565;46.602;11.534;2024-01-30T07:29:31;1.70;99.90
33207;DHT22;19565;46.602;11.534;2024-01-30T07:32:01;1.80;99.90
33207;DHT22;19565;46.602;11.534;2024-01-30T07:34:29;1.80;99.90
33207;DHT22;19565;46.602;11.534;2024-01-30T07:37:02;1.80;99.90
33207;DHT22;19565;46.602;11.534;2024-01-30T07:39:31;1.80;99.90
33207;DHT22;19565;46.602;11.534;2024-01-30T07:41:59;1.80;99.90
33207;DHT22;19565;46.602;11.534;2024-01-30T07:44:29;1.80;99.90
33207;DHT22;19565;46.602;11.534;2024-01-30T07:46:57;1.70;99.90
33207;DHT22;19565;46.602;11.534;2024-01-30T07:49:27;1.70;99.90
33207;DHT22;19565;46.602;11.534;2024-01-30T07:51:56;1.70;99.90
33207;DHT22;19565;46.602;11.534;2024-01-30T07:54:24;1.80;99.90
33207;DHT22;19565;46.602;11.534;2024-01-30T07:56:53;1.70;99.90
33207;DHT22;19565;46.602;11.534;2024-01-30T07:59:22;1.80;99.90
33207;DHT22;19565;46.602;11.534;2024-01-30T08:01:51;1.80;99.90
33207;DHT22;19565;46.602;11.534;2024-01-30T08:04:20;1.80;99.90
33207;DHT22;19565;46.602;11.534;2024-01-30T08:06:49;1.80;99.90
33207;DHT22;19565;46.602;11.534;2024-01-30T08:09:18;1.90;99.90
33207;DHT22;19565;46.602;11.534;2024-01-30T08:11:46;1.90;99.90
33207;DHT22;19565;46.602;11.534;2024-01-30T08:14:15;1.90;99.90
33207;DHT22;19565;46.602;11.534;2024-01-30T08:32:13;1.80;98.00
33207;DHT22;19565;46.602;11.534;2024-01-30T08:34:42;1.90;98.50
33207;DHT22;19565;46.602;11.534;2024-01-30T08:37:10;1.90;98.30
33207;DHT22;19565;46.602;11.534;2024-01-30T08:39:38;2.00;98.40
33207;DHT22;19565;46.602;11.534;2024-01-30T08:42:07;2.00;98.20
33207;DHT22;19565;46.602;11.534;2024-01-30T08:44:35;2.00;98.20
33207;DHT22;19565;46.602;11.534;2024-01-30T08:47:04;2.10;98.30
33207;DHT22;19565;46.602;11.534;2024-01-30T08:49:33;2.10;98.00
33207;DHT22;19565;46.602;11.534;2024-01-30T08:52:02;2.10;97.90
33207;DHT22;19565;46.602;11.534;2024-01-30T08:54:30;2.20;97.90
33207;DHT22;19565;46.602;11.534;2024-01-30T08:57:01;2.10;97.60
33207;DHT22;19565;46.602;11.534;2024-01-30T08:59:29;2.10;97.80
33207;DHT22;19565;46.602;11.534;2024-01-30T09:01:57;2.20;97.90
33207;DHT22;19565;46.602;11.534;2024-01-30T09:04:39;2.20;97.70
33207;DHT22;19565;46.602;11.534;2024-01-30T09:07:09;2.30;97.80
33207;DHT22;19565;46.602;11.534;2024-01-30T09:09:38;2.30;97.90
33207;DHT22;19565;46.602;11.534;2024-01-30T09:12:08;2.40;97.90
33207;DHT22;19565;46.602;11.534;2024-01-30T09:14:39;2.40;97.80
33207;DHT22;19565;46.602;11.534;2024-01-30T09:17:08;2.40;97.90
33207;DHT22;19565;46.602;11.534;2024-01-30T09:19:36;2.40;97.80
33207;DHT22;19565;46.602;11.534;2024-01-30T09:22:06;2.40;97.80
33207;DHT22;19565;46.602;11.534;2024-01-30T09:24:35;2.50;97.90
33207;DHT22;19565;46.602;11.534;2024-01-30T09:27:03;2.50;97.90
33207;DHT22;19565;46.602;11.534;2024-01-30T09:29:31;2.60;98.00
33207;DHT22;19565;46.602;11.534;2024-01-30T09:32:01;2.60;97.70
33207;DHT22;19565;46.602;11.534;2024-01-30T09:34:29;2.60;97.30
33207;DHT22;19565;46.602;11.534;2024-01-30T09:36:58;2.60;97.70
33207;DHT22;19565;46.602;11.534;2024-01-30T09:39:28;2.70;97.70
33207;DHT22;19565;46.602;11.534;2024-01-30T09:42:02;2.80;97.70
33207;DHT22;19565;46.602;11.534;2024-01-30T09:44:31;2.80;98.00
33207;DHT22;19565;46.602;11.534;2024-01-30T09:47:00;2.90;98.20
33207;DHT22;19565;46.602;11.534;2024-01-30T09:49:32;3.00;98.10
33207;DHT22;19565;46.602;11.534;2024-01-30T09:52:01;3.00;98.30
33207;DHT22;19565;46.602;11.534;2024-01-30T09:54:32;3.10;98.40
33207;DHT22;19565;46.602;11.534;2024-01-30T09:57:03;3.10;98.30
33207;DHT22;19565;46.602;11.534;2024-01-30T09:59:31;3.20;98.30
33207;DHT22;19565;46.602;11.534;2024-01-30T10:02:00;3.20;98.30
33207;DHT22;19565;46.602;11.534;2024-01-30T10:04:31;3.20;98.30
33207;DHT22;19565;46.602;11.534;2024-01-30T10:07:01;3.20;98.20
33207;DHT22;19565;46.602;11.534;2024-01-30T10:09:33;3.30;98.30
33207;DHT22;19565;46.602;11.534;2024-01-30T10:12:02;3.30;98.20
33207;DHT22;19565;46.602;11.534;2024-01-30T10:14:31;3.40;98.20
33207;DHT22;19565;46.602;11.534;2024-01-30T10:17:02;3.40;98.00
33207;DHT22;19565;46.602;11.534;2024-01-30T10:19:42;3.50;97.90
33207;DHT22;19565;46.602;11.534;2024-01-30T10:22:11;3.60;97.70
33207;DHT22;19565;46.602;11.534;2024-01-30T10:24:41;3.60;97.10
33207;DHT22;19565;46.602;11.534;2024-01-30T10:27:09;3.70;96.70
33207;DHT22;19565;46.602;11.534;2024-01-30T10:29:38;3.70;96.40
33207;DHT22;19565;46.602;11.534;2024-01-30T10:32:06;3.80;96.50
33207;DHT22;19565;46.602;11.534;2024-01-30T10:34:34;3.80;96.40
33207;DHT22;19565;46.602;11.534;2024-01-30T10:37:07;3.90;96.30
33207;DHT22;19565;46.602;11.534;2024-01-30T10:39:42;4.00;96.10
33207;DHT22;19565;46.602;11.534;2024-01-30T10:42:12;4.00;95.40
33207;DHT22;19565;46.602;11.534;2024-01-30T10:44:46;4.10;95.10
33207;DHT22;19565;46.602;11.534;2024-01-30T10:47:25;4.20;95.10
33207;DHT22;19565;46.602;11.534;2024-01-30T10:49:55;4.20;95.50
33207;DHT22;19565;46.602;11.534;2024-01-30T10:52:24;4.30;95.00
33207;DHT22;19565;46.602;11.534;2024-01-30T10:54:56;4.40;95.00
33207;DHT22;19565;46.602;11.534;2024-01-30T10:57:25;4.40;95.30
33207;DHT22;19565;46.602;11.534;2024-01-30T10:59:56;4.50;95.00
33207;DHT22;19565;46.602;11.534;2024-01-30T11:02:25;4.50;95.20
33207;DHT22;19565;46.602;11.534;2024-01-30T11:04:58;4.60;94.90
33207;DHT22;19565;46.602;11.534;2024-01-30T11:07:28;4.70;94.70
33207;DHT22;19565;46.602;11.534;2024-01-30T11:10:02;4.80;94.70
33207;DHT22;19565;46.602;11.534;2024-01-30T11:12:32;4.90;94.50
33207;DHT22;19565;46.602;11.534;2024-01-30T11:15:06;4.90;94.20
33207;DHT22;19565;46.602;11.534;2024-01-30T11:17:45;5.00;94.40
33207;DHT22;19565;46.602;11.534;2024-01-30T11:20:20;5.10;94.20
33207;DHT22;19565;46.602;11.534;2024-01-30T11:22:52;5.10;94.10
33207;DHT22;19565;46.602;11.534;2024-01-30T11:25:22;5.20;93.70
33207;DHT22;19565;46.602;11.534;2024-01-30T11:27:52;5.30;93.80
33207;DHT22;19565;46.602;11.534;2024-01-30T11:30:22;5.30;93.90
33207;DHT22;19565;46.602;11.534;2024-01-30T11:33:05;5.40;93.20
33207;DHT22;19565;46.602;11.534;2024-01-30T11:35:35;5.40;93.00
33207;DHT22;19565;46.602;11.534;2024-01-30T11:38:04;5.50;93.10
33207;DHT22;19565;46.602;11.534;2024-01-30T11:40:36;5.50;93.20
33207;DHT22;19565;46.602;11.534;2024-01-30T11:43:06;5.60;93.30
33207;DHT22;19565;46.602;11.534;2024-01-30T11:45:35;5.60;92.70
33207;DHT22;19565;46.602;11.534;2024-01-30T11:48:05;5.60;92.00
33207;DHT22;19565;46.602;11.534;2024-01-30T11:50:34;5.70;91.30
33207;DHT22;19565;46.602;11.534;2024-01-30T11:53:05;5.70;91.20
33207;DHT22;19565;46.602;11.534;2024-01-30T11:55:35;5.80;91.20
33207;DHT22;19565;46.602;11.534;2024-01-30T11:58:04;5.80;91.20
33207;DHT22;19565;46.602;11.534;2024-01-30T12:00:33;5.80;91.70
33207;DHT22;19565;46.602;11.534;2024-01-30T12:03:03;5.90;91.70
33207;DHT22;19565;46.602;11.534;2024-01-30T12:05:34;5.90;91.40
33207;DHT22;19565;46.602;11.534;2024-01-30T12:08:04;6.00;91.40
33207;DHT22;19565;46.602;11.534;2024-01-30T12:10:33;6.00;91.30
33207;DHT22;19565;46.602;11.534;2024-01-30T12:13:03;6.10;91.20
33207;DHT22;19565;46.602;11.534;2024-01-30T12:15:31;6.10;91.00
33207;DHT22;19565;46.602;11.534;2024-01-30T12:18:07;6.10;91.00
33207;DHT22;19565;46.602;11.534;2024-01-30T12:20:35;6.20;91.10
33207;DHT22;19565;46.602;11.534;2024-01-30T12:23:04;6.20;90.90
33207;DHT22;19565;46.602;11.534;2024-01-30T12:25:32;6.30;91.00
33207;DHT22;19565;46.602;11.534;2024-01-30T12:28:03;6.30;91.10
33207;DHT22;19565;46.602;11.534;2024-01-30T12:30:31;6.40;91.20
33207;DHT22;19565;46.602;11.534;2024-01-30T12:33:00;6.40;91.20
33207;DHT22;19565;46.602;11.534;2024-01-30T12:35:28;6.40;90.70
33207;DHT22;19565;46.602;11.534;2024-01-30T12:37:59;6.40;90.60
33207;DHT22;19565;46.602;11.534;2024-01-30T12:40:28;6.50;90.60
33207;DHT22;19565;46.602;11.534;2024-01-30T12:42:57;6.50;90.80
33207;DHT22;19565;46.602;11.534;2024-01-30T12:45:26;6.50;90.80
33207;DHT22;19565;46.602;11.534;2024-01-30T12:47:55;6.60;90.70
33207;DHT22;19565;46.602;11.534;2024-01-30T12:50:23;6.60;90.40
33207;DHT22;19565;46.602;11.534;2024-01-30T12:52:51;6.60;90.50
33207;DHT22;19565;46.602;11.534;2024-01-30T12:55:20;6.70;90.90
33207;DHT22;19565;46.602;11.534;2024-01-30T12:57:48;6.70;91.10
33207;DHT22;19565;46.602;11.534;2024-01-30T13:00:16;6.70;90.90
33207;DHT22;19565;46.602;11.534;2024-01-30T13:02:47;6.80;90.70
33207;DHT22;19565;46.602;11.534;2024-01-30T13:05:16;6.80;90.40
33207;DHT22;19565;46.602;11.534;2024-01-30T13:07:44;6.80;90.30
33207;DHT22;19565;46.602;11.534;2024-01-30T13:10:13;6.80;90.20
33207;DHT22;19565;46.602;11.534;2024-01-30T13:12:41;6.90;90.30
33207;DHT22;19565;46.602;11.534;2024-01-30T13:15:09;6.90;90.40
33207;DHT22;19565;46.602;11.534;2024-01-30T13:17:38;7.00;90.50
33207;DHT22;19565;46.602;11.534;2024-01-30T13:20:09;7.00;90.40
33207;DHT22;19565;46.602;11.534;2024-01-30T13:22:38;7.00;90.30
33207;DHT22;19565;46.602;11.534;2024-01-30T13:25:07;7.00;90.20
33207;DHT22;19565;46.602;11.534;2024-01-30T13:27:36;7.00;90.10
33207;DHT22;19565;46.602;11.534;2024-01-30T13:30:07;7.10;90.00
33207;DHT22;19565;46.602;11.534;2024-01-30T13:32:37;7.10;89.70
33207;DHT22;19565;46.602;11.534;2024-01-30T13:35:05;7.10;90.10
33207;DHT22;19565;46.602;11.534;2024-01-30T13:37:35;7.10;90.50
33207;DHT22;19565;46.602;11.534;2024-01-30T13:40:05;7.10;90.60
33207;DHT22;19565;46.602;11.534;2024-01-30T13:42:40;7.20;90.10
33207;DHT22;19565;46.602;11.534;2024-01-30T13:45:08;7.10;89.50
33207;DHT22;19565;46.602;11.534;2024-01-30T13:47:38;7.20;89.50
33207;DHT22;19565;46.602;11.534;2024-01-30T13:50:06;7.20;89.70
33207;DHT22;19565;46.602;11.534;2024-01-30T13:52:38;7.20;89.50
33207;DHT22;19565;46.602;11.534;2024-01-30T13:55:11;7.20;89.80
33207;DHT22;19565;46.602;11.534;2024-01-30T13:57:40;7.20;89.40
33207;DHT22;19565;46.602;11.534;2024-01-30T14:00:09;7.20;90.40
33207;DHT22;19565;46.602;11.534;2024-01-30T14:02:38;7.20;91.20
33207;DHT22;19565;46.602;11.534;2024-01-30T14:05:07;7.20;91.40
33207;DHT22;19565;46.602;11.534;2024-01-30T14:07:38;7.20;90.30
33207;DHT22;19565;46.602;11.534;2024-01-30T14:10:09;7.20;89.70
33207;DHT22;19565;46.602;11.534;2024-01-30T14:12:42;7.20;89.80
33207;DHT22;19565;46.602;11.534;2024-01-30T14:15:11;7.20;90.00
33207;DHT22;19565;46.602;11.534;2024-01-30T14:17:54;7.20;90.10
33207;DHT22;19565;46.602;11.534;2024-01-30T14:20:23;7.10;90.00
33207;DHT22;19565;46.602;11.534;2024-01-30T14:22:53;7.20;89.90
33207;DHT22;19565;46.602;11.534;2024-01-30T14:25:23;7.20;89.40
33207;DHT22;19565;46.602;11.534;2024-01-30T14:27:51;7.10;89.00
33207;DHT22;19565;46.602;11.534;2024-01-30T14:30:22;7.10;89.20
33207;DHT22;19565;46.602;11.534;2024-01-30T14:32:50;7.10;89.40
33207;DHT22;19565;46.602;11.534;2024-01-30T14:35:19;7.00;89.40
33207;DHT22;19565;46.602;11.534;2024-01-30T14:37:47;7.00;89.20
33207;DHT22;19565;46.602;11.534;2024-01-30T14:40:17;7.00;89.20
33207;DHT22;19565;46.602;11.534;2024-01-30T14:42:46;7.00;89.40
33207;DHT22;19565;46.602;11.534;2024-01-30T14:45:15;7.00;89.50
33207;DHT22;19565;46.602;11.534;2024-01-30T14:47:44;7.00;89.70
33207;DHT22;19565;46.602;11.534;2024-01-30T14:50:13;6.90;89.70
33207;DHT22;19565;46.602;11.534;2024-01-30T14:52:43;6.90;90.10
33207;DHT22;19565;46.602;11.534;2024-01-30T14:55:12;6.90;90.50
33207;DHT22;19565;46.602;11.534;2024-01-30T14:57:41;6.80;90.80
33207;DHT22;19565;46.602;11.534;2024-01-30T15:00:13;6.80;91.10
33207;DHT22;19565;46.602;11.534;2024-01-30T15:02:43;6.70;91.40
33207;DHT22;19565;46.602;11.534;2024-01-30T15:05:14;6.70;91.60
33207;DHT22;19565;46.602;11.534;2024-01-30T15:07:48;6.60;91.90
33207;DHT22;19565;46.602;11.534;2024-01-30T15:10:16;6.50;91.90
33207;DHT22;19565;46.602;11.534;2024-01-30T15:12:46;6.50;92.20
33207;DHT22;19565;46.602;11.534;2024-01-30T15:15:15;6.40;92.30
33207;DHT22;19565;46.602;11.534;2024-01-30T15:17:43;6.40;92.30
33207;DHT22;19565;46.602;11.534;2024-01-30T15:20:12;6.40;92.20
33207;DHT22;19565;46.602;11.534;2024-01-30T15:22:40;6.30;92.50
33207;DHT22;19565;46.602;11.534;2024-01-30T15:25:08;6.30;92.70
33207;DHT22;19565;46.602;11.534;2024-01-30T15:27:38;6.30;92.90
33207;DHT22;19565;46.602;11.534;2024-01-30T15:30:11;6.20;93.00
33207;DHT22;19565;46.602;11.534;2024-01-30T15:32:40;6.20;93.20
33207;DHT22;19565;46.602;11.534;2024-01-30T15:37:38;6.10;93.40
33207;DHT22;19565;46.602;11.534;2024-01-30T15:40:07;6.10;93.50
33207;DHT22;19565;46.602;11.534;2024-01-30T15:42:35;6.10;93.60
33207;DHT22;19565;46.602;11.534;2024-01-30T15:47:36;6.00;93.20
33207;DHT22;19565;46.602;11.534;2024-01-30T15:50:05;6.00;93.40
33207;DHT22;19565;46.602;11.534;2024-01-30T15:55:15;5.90;93.30
33207;DHT22;19565;46.602;11.534;2024-01-30T15:57:43;5.90;93.40
33207;DHT22;19565;46.602;11.534;2024-01-30T16:00:13;5.80;93.10
33207;DHT22;19565;46.602;11.534;2024-01-30T16:02:43;5.80;93.10
33207;DHT22;19565;46.602;11.534;2024-01-30T16:05:11;5.80;93.50